Time;durP1;ratioP1;P1;durP2;ratioP2;P2;SDS_P1;SDS_P2;PMS_P1;PMS_P2;Temp;Humidity;BMP_temperature;BMP_pressure;BME280_temperature;BME280_humidity;BME280_pressure;Samples;Min_cycle;Max_cycle;Signal;HPM_P1;HPM_P2
2023/06/13 07:45:54;;;;;;;6.20;5.65;;;;;;;;;;6286559;22;20341;-81
2023/06/13 09:37:29;;;;;;;5.60;4.90;;;;;;;;;;6305250;22;20082;-80
2023/06/13 09:39:54;;;;;;;5.15;4.65;;;;;;;;;;6308969;22;20015;-83
2023/06/13 09:42:24;;;;;;;4.85;4.35;;;;;;;;;;6309354;22;20003;-87
2023/06/13 09:44:51;;;;;;;4.60;4.20;;;;;;;;;;6308981;22;20007;-86
2023/06/13 09:47:22;;;;;;;4.75;4.35;;;;;;;;;;6309200;22;20010;-81
2023/06/13 09:49:57;;;;;;;5.07;4.47;;;;;;;;;;6309250;22;20457;-81
2023/06/13 09:52:27;;;;;;;5.05;4.65;;;;;;;;;;6309022;22;20011;-79
2023/06/13 09:54:53;;;;;;;6.65;5.22;;;;;;;;;;6308810;22;19999;-79
2023/06/13 09:57:19;;;;;;;5.75;5.13;;;;;;;;;;6309119;22;20003;-88
2023/06/13 09:59:47;;;;;;;5.10;4.70;;;;;;;;;;6309051;22;20018;-81
2023/06/13 10:02:13;;;;;;;5.43;4.70;;;;;;;;;;6308731;22;20074;-80
2023/06/13 10:04:38;;;;;;;5.68;4.55;;;;;;;;;;6308584;22;19999;-80
2023/06/13 10:07:04;;;;;;;5.78;4.32;;;;;;;;;;6308814;22;20048;-82
2023/06/13 10:09:30;;;;;;;5.15;4.60;;;;;;;;;;6309844;22;20304;-81
2023/06/13 10:11:59;;;;;;;6.28;4.55;;;;;;;;;;6310161;22;20049;-83
2023/06/13 10:14:26;;;;;;;;;;;;;;;;;;6310523;22;20011;-87
2023/06/13 10:17:01;;;;;;;5.13;4.43;;;;;;;;;;6308952;22;19933;-80
2023/06/13 10:19:29;;;;;;;6.35;4.93;;;;;;;;;;6308622;22;20452;-81
2023/06/13 10:21:55;;;;;;;5.15;4.65;;;;;;;;;;6308343;22;20007;-79
2023/06/13 10:24:22;;;;;;;5.32;4.10;;;;;;;;;;6310017;22;20003;-86
2023/06/13 10:26:52;;;;;;;5.30;3.92;;;;;;;;;;6309349;22;20006;-87
2023/06/13 10:29:55;;;;;;;4.65;4.18;;;;;;;;;;6308815;22;20364;-86
2023/06/13 10:32:29;;;;;;;5.90;4.53;;;;;;;;;;6308525;22;20003;-78
2023/06/13 10:35:22;;;;;;;4.70;4.20;;;;;;;;;;6308410;22;20014;-78
2023/06/13 10:38:14;;;;;;;6.90;4.50;;;;;;;;;;6308271;22;20011;-77
2023/06/13 10:41:13;;;;;;;4.93;4.47;;;;;;;;;;6308976;22;19999;-76
2023/06/13 10:43:57;;;;;;;4.35;3.95;;;;;;;;;;6309685;22;20045;-84
2023/06/13 10:46:22;;;;;;;4.95;4.40;;;;;;;;;;6309256;22;20491;-89
2023/06/13 10:48:49;;;;;;;4.90;4.50;;;;;;;;;;6308822;22;20078;-77
2023/06/13 10:51:31;;;;;;;4.45;4.05;;;;;;;;;;6308591;22;20004;-77
2023/06/13 10:54:02;;;;;;;4.75;4.35;;;;;;;;;;6308384;22;20026;-76
2023/06/13 10:56:32;;;;;;;6.75;4.70;;;;;;;;;;6308229;22;20406;-81
2023/06/13 10:59:09;;;;;;;5.20;4.53;;;;;;;;;;6308157;22;20000;-78
2023/06/13 11:01:37;;;;;;;5.82;4.57;;;;;;;;;;6308217;22;20034;-79
2023/06/13 11:04:08;;;;;;;4.28;3.88;;;;;;;;;;6308327;22;20003;-84
2023/06/13 11:06:33;;;;;;;5.03;4.40;;;;;;;;;;6308381;22;20003;-76
2023/06/13 11:09:23;;;;;;;6.10;4.60;;;;;;;;;;6308145;22;20482;-77
2023/06/13 11:11:52;;;;;;;4.80;4.30;;;;;;;;;;6308213;22;20074;-78
2023/06/13 11:14:41;;;;;;;5.20;4.70;;;;;;;;;;6305982;22;20010;-78
2023/06/13 11:17:07;;;;;;;5.00;4.60;;;;;;;;;;6292631;22;20008;-77
2023/06/13 11:19:38;;;;;;;4.55;4.15;;;;;;;;;;6308196;22;20171;-77
2023/06/13 11:22:04;;;;;;;4.82;4.25;;;;;;;;;;6308120;22;20003;-82
2023/06/13 11:24:34;;;;;;;4.72;4.32;;;;;;;;;;6308055;22;20007;-77
2023/06/13 11:27:03;;;;;;;5.00;4.60;;;;;;;;;;6308035;22;20005;-87
2023/06/13 11:29:29;;;;;;;5.75;4.85;;;;;;;;;;6306984;22;20006;-77
2023/06/13 11:31:55;;;;;;;5.72;4.35;;;;;;;;;;6307815;22;20011;-82
2023/06/13 11:34:25;;;;;;;5.47;4.53;;;;;;;;;;6308334;22;20433;-82
2023/06/13 11:36:57;;;;;;;5.18;4.78;;;;;;;;;;6308109;22;20003;-84
2023/06/13 11:39:26;;;;;;;4.97;4.38;;;;;;;;;;6308256;22;20003;-86
2023/06/13 11:41:52;;;;;;;5.32;4.43;;;;;;;;;;6308224;22;20000;-87
2023/06/13 11:44:18;;;;;;;4.65;4.20;;;;;;;;;;6307926;22;20410;-87
2023/06/13 11:46:44;;;;;;;4.78;4.38;;;;;;;;;;6308469;22;20455;-82
2023/06/13 11:49:16;;;;;;;4.88;4.40;;;;;;;;;;6308476;22;20000;-89
2023/06/13 11:51:43;;;;;;;5.60;5.10;;;;;;;;;;6308174;22;20418;-86
2023/06/13 11:54:09;;;;;;;4.97;4.35;;;;;;;;;;6307987;22;20088;-83
2023/06/13 11:56:40;;;;;;;4.78;4.35;;;;;;;;;;6308864;22;20010;-83
2023/06/13 11:59:16;;;;;;;4.70;4.30;;;;;;;;;;6308136;22;20007;-82
2023/06/13 12:01:52;;;;;;;4.30;4.00;;;;;;;;;;6308097;22;20418;-82
2023/06/13 12:04:19;;;;;;;5.50;5.00;;;;;;;;;;6308404;22;20007;-82
2023/06/13 12:06:45;;;;;;;6.03;4.82;;;;;;;;;;6308559;22;20378;-82
2023/06/13 12:09:11;;;;;;;5.75;5.18;;;;;;;;;;6308213;22;20007;-85
2023/06/13 12:11:36;;;;;;;4.97;4.50;;;;;;;;;;6308072;22;19999;-82
2023/06/13 12:14:02;;;;;;;5.18;4.75;;;;;;;;;;6308217;22;20003;-83
2023/06/13 12:16:33;;;;;;;5.18;4.68;;;;;;;;;;6308190;22;19995;-89
2023/06/13 12:19:00;;;;;;;5.93;4.70;;;;;;;;;;6308692;22;20296;-82
2023/06/13 12:21:31;;;;;;;5.10;4.70;;;;;;;;;;6308360;22;20056;-87
2023/06/13 12:23:59;;;;;;;5.05;4.55;;;;;;;;;;6308294;22;20010;-81
2023/06/13 12:26:26;;;;;;;5.20;4.70;;;;;;;;;;6310437;22;20007;-82
2023/06/13 12:28:55;;;;;;;5.22;4.47;;;;;;;;;;6309891;22;20002;-82
2023/06/13 12:31:38;;;;;;;4.80;4.40;;;;;;;;;;6310018;22;20031;-82
2023/06/13 12:34:13;;;;;;;5.95;4.70;;;;;;;;;;6311744;22;20329;-82
2023/06/13 12:36:42;;;;;;;5.07;4.57;;;;;;;;;;6310247;22;20057;-82
2023/06/13 12:39:17;;;;;;;;;;;;;;;;;;6312587;22;20062;-82
2023/06/13 12:41:47;;;;;;;4.70;4.22;;;;;;;;;;6315264;22;19907;-89
2023/06/13 12:44:13;;;;;;;5.55;4.78;;;;;;;;;;6314603;22;20009;-83
2023/06/13 12:46:38;;;;;;;6.03;4.95;;;;;;;;;;6312438;22;20066;-83
2023/06/13 12:49:12;;;;;;;4.78;4.38;;;;;;;;;;6311906;22;20003;-85
2023/06/13 12:51:45;;;;;;;4.65;4.25;;;;;;;;;;6312761;22;20027;-82
2023/06/13 12:54:15;;;;;;;5.10;4.70;;;;;;;;;;6311957;22;20030;-88
2023/06/13 12:56:59;;;;;;;5.40;4.90;;;;;;;;;;6310635;22;19999;-87
2023/06/13 12:59:31;;;;;;;5.97;4.95;;;;;;;;;;6311191;22;20026;-82
2023/06/13 13:01:58;;;;;;;6.72;5.18;;;;;;;;;;6311191;22;20447;-84
2023/06/13 13:04:31;;;;;;;5.03;4.63;;;;;;;;;;6310999;22;20124;-87
2023/06/13 13:06:57;;;;;;;5.13;4.63;;;;;;;;;;6310796;22;20044;-82
2023/06/13 13:09:24;;;;;;;4.30;3.90;;;;;;;;;;6310867;22;20076;-87
2023/06/13 13:11:49;;;;;;;10.48;4.80;;;;;;;;;;6310146;22;20056;-82
2023/06/13 13:14:14;;;;;;;7.72;4.47;;;;;;;;;;6309780;22;20007;-83
2023/06/13 13:16:40;;;;;;;4.70;4.18;;;;;;;;;;6310303;22;20003;-86
2023/06/13 13:19:05;;;;;;;7.82;4.70;;;;;;;;;;6309664;22;20418;-81
2023/06/13 13:21:32;;;;;;;5.93;4.47;;;;;;;;;;6309927;22;19999;-81
2023/06/13 13:23:58;;;;;;;5.53;4.00;;;;;;;;;;6310254;22;20003;-82
2023/06/13 13:26:23;;;;;;;8.48;4.80;;;;;;;;;;6310955;22;20307;-83
2023/06/13 13:28:49;;;;;;;6.57;4.43;;;;;;;;;;6310984;22;20000;-82
2023/06/13 13:31:14;;;;;;;5.63;4.85;;;;;;;;;;6310233;22;20022;-82
2023/06/13 13:33:40;;;;;;;8.40;4.70;;;;;;;;;;6310284;22;20094;-86
2023/06/13 13:36:06;;;;;;;6.30;4.20;;;;;;;;;;6312018;22;20010;-84
2023/06/13 13:38:31;;;;;;;5.00;4.50;;;;;;;;;;6311224;22;19999;-85
2023/06/13 13:40:57;;;;;;;4.93;4.32;;;;;;;;;;6309131;22;20329;-82
2023/06/13 13:43:22;;;;;;;7.97;5.25;;;;;;;;;;6309231;22;19999;-86
2023/06/13 13:45:48;;;;;;;6.35;4.50;;;;;;;;;;6309963;22;20004;-85
2023/06/13 13:48:14;;;;;;;6.07;4.65;;;;;;;;;;6311605;22;20053;-87
2023/06/13 13:50:39;;;;;;;5.82;4.32;;;;;;;;;;6311070;22;20414;-82
2023/06/13 13:53:07;;;;;;;7.85;5.13;;;;;;;;;;6308885;22;19999;-92
2023/06/13 13:55:33;;;;;;;4.43;3.88;;;;;;;;;;6310650;22;20003;-90
2023/06/13 13:57:58;;;;;;;6.97;4.63;;;;;;;;;;6312625;22;20014;-88
2023/06/13 14:00:24;;;;;;;5.10;4.60;;;;;;;;;;6325594;22;19987;-87
2023/06/13 14:02:50;;;;;;;5.20;4.43;;;;;;;;;;6313839;22;20004;-85
2023/06/13 14:05:15;;;;;;;5.30;4.55;;;;;;;;;;6311284;22;20037;-87
2023/06/13 14:07:42;;;;;;;6.82;4.60;;;;;;;;;;6309735;22;19999;-81
2023/06/13 14:10:07;;;;;;;5.47;4.43;;;;;;;;;;6309341;22;20003;-85
2023/06/13 14:12:33;;;;;;;6.18;4.50;;;;;;;;;;6308925;22;20003;-83
2023/06/13 14:14:58;;;;;;;4.53;4.05;;;;;;;;;;6309138;22;20007;-85
2023/06/13 14:17:23;;;;;;;5.70;5.07;;;;;;;;;;6308584;22;20003;-82
2023/06/13 14:19:51;;;;;;;4.65;4.22;;;;;;;;;;6307535;22;20023;-82
2023/06/13 14:22:16;;;;;;;8.27;4.50;;;;;;;;;;6308905;22;20003;-82
2023/06/13 14:24:42;;;;;;;5.13;4.60;;;;;;;;;;6308595;22;20011;-89
2023/06/13 14:27:09;;;;;;;7.18;4.25;;;;;;;;;;6309159;22;20118;-82
2023/06/13 14:29:35;;;;;;;6.03;4.90;;;;;;;;;;6309495;22;19999;-91
2023/06/13 14:32:01;;;;;;;5.30;4.65;;;;;;;;;;6308952;22;20013;-81
2023/06/13 14:34:28;;;;;;;6.32;4.55;;;;;;;;;;6308405;22;20010;-82
2023/06/13 14:36:54;;;;;;;5.38;4.53;;;;;;;;;;6308786;22;20003;-82
2023/06/13 14:39:20;;;;;;;4.82;4.43;;;;;;;;;;6308730;22;20434;-82
2023/06/13 14:41:46;;;;;;;4.20;3.80;;;;;;;;;;6308540;22;20443;-84
2023/06/13 14:44:11;;;;;;;4.90;4.50;;;;;;;;;;6308479;22;20082;-82
2023/06/13 14:46:37;;;;;;;5.72;4.72;;;;;;;;;;6308568;22;20052;-89
2023/06/13 14:49:02;;;;;;;6.78;4.53;;;;;;;;;;6308188;22;19999;-81
2023/06/13 14:51:28;;;;;;;4.97;4.50;;;;;;;;;;6308651;22;19995;-81
2023/06/13 14:53:53;;;;;;;4.75;4.25;;;;;;;;;;6308133;22;20086;-83
2023/06/13 14:56:18;;;;;;;5.60;4.18;;;;;;;;;;6308517;22;19999;-82
2023/06/13 14:58:44;;;;;;;9.70;5.05;;;;;;;;;;6308367;22;20006;-82
2023/06/13 15:01:10;;;;;;;6.13;4.32;;;;;;;;;;6308177;22;19999;-81
2023/06/13 15:03:39;;;;;;;6.07;4.80;;;;;;;;;;6308111;22;20003;-82
2023/06/13 15:06:06;;;;;;;4.60;4.28;;;;;;;;;;6308483;22;20074;-82
2023/06/13 15:08:31;;;;;;;4.40;4.00;;;;;;;;;;6308303;22;20003;-82
2023/06/13 15:10:57;;;;;;;4.22;3.83;;;;;;;;;;6308169;22;20056;-82
2023/06/13 15:13:22;;;;;;;4.43;4.07;;;;;;;;;;6308047;22;20307;-81
2023/06/13 15:15:55;;;;;;;7.05;4.55;;;;;;;;;;6308064;22;20136;-81
2023/06/13 15:18:21;;;;;;;7.10;4.40;;;;;;;;;;6308608;22;20009;-81
2023/06/13 15:20:47;;;;;;;4.70;4.20;;;;;;;;;;6308467;22;20003;-80
2023/06/13 15:23:13;;;;;;;4.95;4.15;;;;;;;;;;6308404;22;20476;-81
2023/06/13 15:25:38;;;;;;;4.55;4.15;;;;;;;;;;6307880;22;20000;-83
2023/06/13 15:28:04;;;;;;;6.68;3.92;;;;;;;;;;6308178;22;20371;-80
2023/06/13 15:30:30;;;;;;;6.43;4.75;;;;;;;;;;6308255;22;20319;-85
2023/06/13 15:32:56;;;;;;;4.68;3.72;;;;;;;;;;6308230;22;20037;-81
2023/06/13 15:35:21;;;;;;;5.57;4.60;;;;;;;;;;6308319;22;20003;-81
2023/06/13 15:37:47;;;;;;;5.00;3.95;;;;;;;;;;6308118;22;20007;-81
2023/06/13 15:40:12;;;;;;;5.47;4.50;;;;;;;;;;6308102;22;19999;-87
2023/06/13 15:42:38;;;;;;;5.22;4.13;;;;;;;;;;6308163;22;19999;-80
2023/06/13 15:45:04;;;;;;;4.50;4.10;;;;;;;;;;6308211;22;20295;-82
2023/06/13 15:47:29;;;;;;;4.30;3.90;;;;;;;;;;6308581;22;20086;-81
2023/06/13 15:49:55;;;;;;;5.07;4.07;;;;;;;;;;6308286;22;20053;-82
2023/06/13 15:52:20;;;;;;;4.57;4.18;;;;;;;;;;6308092;22;20430;-80
2023/06/13 15:54:46;;;;;;;4.63;4.15;;;;;;;;;;6307717;22;20007;-81
2023/06/13 15:57:11;;;;;;;4.40;4.00;;;;;;;;;;6307909;22;20061;-81
2023/06/13 15:59:37;;;;;;;5.00;4.50;;;;;;;;;;6308571;22;20002;-80
2023/06/13 16:02:02;;;;;;;4.65;4.25;;;;;;;;;;6310023;22;20026;-81
2023/06/13 16:04:28;;;;;;;5.10;4.60;;;;;;;;;;6309952;22;20353;-82
2023/06/13 16:06:54;;;;;;;4.38;3.97;;;;;;;;;;6310162;22;19995;-81
2023/06/13 16:09:22;;;;;;;4.80;4.32;;;;;;;;;;6309862;22;19999;-88
2023/06/13 16:11:47;;;;;;;4.72;4.15;;;;;;;;;;6310225;22;20353;-82
2023/06/13 16:14:13;;;;;;;5.05;4.07;;;;;;;;;;6309556;22;20081;-82
2023/06/13 16:16:39;;;;;;;4.32;3.92;;;;;;;;;;6309774;22;20003;-82
2023/06/13 16:19:06;;;;;;;5.35;4.05;;;;;;;;;;6309865;22;19995;-86
2023/06/13 16:21:32;;;;;;;6.78;3.97;;;;;;;;;;6310164;22;20003;-82
2023/06/13 16:23:57;;;;;;;4.90;4.40;;;;;;;;;;6310123;22;20460;-81
2023/06/13 16:26:23;;;;;;;4.10;3.70;;;;;;;;;;6310195;22;20374;-86
2023/06/13 16:28:48;;;;;;;4.93;3.80;;;;;;;;;;6310154;22;20003;-81
2023/06/13 16:31:14;;;;;;;4.40;4.05;;;;;;;;;;6310153;22;20109;-82
2023/06/13 16:33:39;;;;;;;4.50;4.10;;;;;;;;;;6309611;22;20007;-81
2023/06/13 16:36:06;;;;;;;4.57;4.18;;;;;;;;;;6310026;22;20387;-81
2023/06/13 16:38:31;;;;;;;4.43;4.03;;;;;;;;;;6310259;22;20002;-81
2023/06/13 16:40:57;;;;;;;4.22;3.83;;;;;;;;;;6309924;22;20070;-81
2023/06/13 16:43:25;;;;;;;4.57;4.07;;;;;;;;;;6309628;22;20030;-84
2023/06/13 16:45:51;;;;;;;4.37;3.77;;;;;;;;;;6310052;22;19999;-82
2023/06/13 16:48:16;;;;;;;5.07;4.40;;;;;;;;;;6308565;22;20014;-83
2023/06/13 16:50:41;;;;;;;4.30;3.88;;;;;;;;;;6309652;22;20008;-85
2023/06/13 16:53:07;;;;;;;5.30;4.60;;;;;;;;;;6309485;22;20003;-82
2023/06/13 16:55:32;;;;;;;4.40;3.97;;;;;;;;;;6309632;22;20039;-81
2023/06/13 16:57:58;;;;;;;6.75;5.30;;;;;;;;;;6309454;22;20000;-80
2023/06/13 17:00:23;;;;;;;4.65;4.22;;;;;;;;;;6307896;22;20003;-84
2023/06/13 17:02:50;;;;;;;6.50;4.45;;;;;;;;;;6309953;22;20003;-83
2023/06/13 17:05:16;;;;;;;4.68;4.28;;;;;;;;;;6309827;22;20011;-81
2023/06/13 17:07:42;;;;;;;4.90;4.45;;;;;;;;;;6309773;22;20003;-82
2023/06/13 17:10:08;;;;;;;5.00;4.47;;;;;;;;;;6308142;22;20030;-83
2023/06/13 17:12:37;;;;;;;4.35;3.95;;;;;;;;;;6308977;22;19999;-82
2023/06/13 17:15:03;;;;;;;5.38;4.15;;;;;;;;;;6310007;22;20452;-85
2023/06/13 17:17:29;;;;;;;4.63;4.22;;;;;;;;;;6310271;22;19999;-86
2023/06/13 17:19:58;;;;;;;5.28;4.88;;;;;;;;;;6310049;22;20410;-84
2023/06/13 17:22:25;;;;;;;5.38;4.60;;;;;;;;;;6308095;22;20009;-82
2023/06/13 17:24:51;;;;;;;4.55;4.15;;;;;;;;;;6309319;22;20303;-85
2023/06/13 17:27:16;;;;;;;6.43;5.70;;;;;;;;;;6309947;22;20011;-86
2023/06/13 17:29:41;;;;;;;5.10;4.55;;;;;;;;;;6309929;22;20003;-85
2023/06/13 17:32:07;;;;;;;4.95;4.45;;;;;;;;;;6309811;22;20081;-87
2023/06/13 17:34:33;;;;;;;5.13;4.50;;;;;;;;;;6309180;22;19999;-86
2023/06/13 17:36:59;;;;;;;5.88;5.28;;;;;;;;;;6314479;22;20002;-83
2023/06/13 17:39:25;;;;;;;5.18;4.63;;;;;;;;;;6316427;22;20062;-94
2023/06/13 17:41:50;;;;;;;4.85;4.13;;;;;;;;;;6313314;22;20323;-92
2023/06/13 17:44:16;;;;;;;4.97;4.43;;;;;;;;;;6310885;22;20334;-85
2023/06/13 17:46:42;;;;;;;4.32;3.92;;;;;;;;;;6310456;22;20076;-86
2023/06/13 17:49:09;;;;;;;6.00;4.90;;;;;;;;;;6310218;22;20380;-88
2023/06/13 17:51:34;;;;;;;5.32;4.82;;;;;;;;;;6313604;22;19995;-90
2023/06/13 17:54:00;;;;;;;5.60;5.10;;;;;;;;;;6313404;22;20003;-96
2023/06/13 17:56:26;;;;;;;5.18;4.30;;;;;;;;;;6311505;22;20052;-85
2023/06/13 17:58:56;;;;;;;4.40;4.00;;;;;;;;;;6307675;22;20082;-81
2023/06/13 18:01:21;;;;;;;4.72;4.25;;;;;;;;;;6309588;22;20026;-82
2023/06/13 18:03:47;;;;;;;5.35;4.25;;;;;;;;;;6315969;22;20483;-88
2023/06/13 18:06:13;;;;;;;4.40;4.00;;;;;;;;;;6319232;22;20010;-84
2023/06/13 18:08:39;;;;;;;4.20;3.80;;;;;;;;;;6323196;22;19991;-82
2023/06/13 18:11:05;;;;;;;4.05;3.60;;;;;;;;;;6316424;22;20406;-94
2023/06/13 18:13:31;;;;;;;4.90;4.25;;;;;;;;;;6310502;22;20052;-93
2023/06/13 18:15:57;;;;;;;5.25;4.30;;;;;;;;;;6309812;22;20007;-84
2023/06/13 18:18:22;;;;;;;4.70;4.30;;;;;;;;;;6310003;22;20003;-88
2023/06/13 18:20:48;;;;;;;4.32;3.92;;;;;;;;;;6311809;22;20433;-87
2023/06/13 18:23:14;;;;;;;5.20;4.70;;;;;;;;;;6309134;22;20003;-89
2023/06/13 18:25:39;;;;;;;4.82;4.43;;;;;;;;;;6311329;22;20422;-91
2023/06/13 18:28:05;;;;;;;4.70;4.30;;;;;;;;;;6310242;22;20078;-90
2023/06/13 18:30:31;;;;;;;5.13;4.63;;;;;;;;;;6309405;22;20000;-85
2023/06/13 18:32:56;;;;;;;5.68;4.72;;;;;;;;;;6308829;22;20424;-87
2023/06/13 18:35:22;;;;;;;6.82;4.82;;;;;;;;;;6308427;22;20493;-83
2023/06/13 18:37:48;;;;;;;5.68;5.10;;;;;;;;;;6310146;22;20415;-87
2023/06/13 18:40:15;;;;;;;5.10;4.60;;;;;;;;;;6316162;22;20006;-95
2023/06/13 18:42:41;;;;;;;5.63;4.68;;;;;;;;;;6310621;22;20003;-86
2023/06/13 18:45:08;;;;;;;4.35;3.95;;;;;;;;;;6309732;22;20307;-92
2023/06/13 18:47:34;;;;;;;5.35;4.80;;;;;;;;;;6309396;22;20431;-91
2023/06/13 18:50:00;;;;;;;5.57;5.07;;;;;;;;;;6309207;22;19999;-84
2023/06/13 18:52:25;;;;;;;5.32;4.90;;;;;;;;;;6308679;22;20098;-83
2023/06/13 18:54:51;;;;;;;5.28;4.78;;;;;;;;;;6308645;22;20411;-81
2023/06/13 18:57:17;;;;;;;5.55;4.82;;;;;;;;;;6308926;22;20071;-87
2023/06/13 18:59:43;;;;;;;6.20;5.60;;;;;;;;;;6309409;22;19995;-79
2023/06/13 19:02:09;;;;;;;6.00;5.45;;;;;;;;;;6309769;22;20109;-91
2023/06/13 19:04:37;;;;;;;4.95;4.47;;;;;;;;;;6309421;22;20003;-86
2023/06/13 19:07:04;;;;;;;5.88;4.50;;;;;;;;;;6308787;22;20006;-84
2023/06/13 19:09:30;;;;;;;5.53;5.03;;;;;;;;;;6312100;22;20007;-87
2023/06/13 19:11:56;;;;;;;5.63;5.07;;;;;;;;;;6309690;22;20019;-90
2023/06/13 19:14:21;;;;;;;5.47;4.97;;;;;;;;;;6308918;22;20007;-88
2023/06/13 19:16:47;;;;;;;5.07;4.65;;;;;;;;;;6311407;22;20429;-94
2023/06/13 19:19:13;;;;;;;4.70;4.30;;;;;;;;;;6311041;22;19995;-96
2023/06/13 19:21:39;;;;;;;4.50;3.90;;;;;;;;;;6311342;22;20027;-95
2023/06/13 19:24:05;;;;;;;4.80;3.80;;;;;;;;;;6310159;22;20022;-93
2023/06/13 19:26:32;;;;;;;4.43;3.95;;;;;;;;;;6309460;22;19999;-86
2023/06/13 19:28:58;;;;;;;4.47;4.07;;;;;;;;;;6309810;22;20010;-86
2023/06/13 19:31:24;;;;;;;3.78;3.47;;;;;;;;;;6310663;22;19999;-86
2023/06/13 19:33:49;;;;;;;4.65;3.65;;;;;;;;;;6309999;22;20457;-85
2023/06/13 19:36:17;;;;;;;4.65;4.25;;;;;;;;;;6312533;22;20364;-79
2023/06/13 19:38:42;;;;;;;5.68;4.28;;;;;;;;;;6311040;22;20015;-78
2023/06/13 19:41:08;;;;;;;4.43;4.03;;;;;;;;;;6310806;22;20329;-81
2023/06/13 19:43:34;;;;;;;4.10;3.72;;;;;;;;;;6311243;22;20003;-84
2023/06/13 19:46:00;;;;;;;5.53;3.65;;;;;;;;;;6310769;22;20433;-82
2023/06/13 19:48:25;;;;;;;3.85;3.55;;;;;;;;;;6312749;22;20023;-80
2023/06/13 19:50:52;;;;;;;5.78;5.28;;;;;;;;;;6311906;22;20296;-85
2023/06/13 19:53:18;;;;;;;6.35;5.13;;;;;;;;;;6311885;22;20018;-87
2023/06/13 19:55:44;;;;;;;5.55;5.05;;;;;;;;;;6311777;22;20007;-82
2023/06/13 19:58:09;;;;;;;4.88;4.47;;;;;;;;;;6311037;22;20422;-81
2023/06/13 20:00:35;;;;;;;4.55;4.07;;;;;;;;;;6310382;22;20402;-81
2023/06/13 20:03:01;;;;;;;4.13;3.83;;;;;;;;;;6309062;22;20069;-81
2023/06/13 20:05:26;;;;;;;5.07;4.10;;;;;;;;;;6310872;22;20003;-83
2023/06/13 20:07:52;;;;;;;4.82;4.32;;;;;;;;;;6310691;22;19991;-81
2023/06/13 20:10:18;;;;;;;4.13;3.72;;;;;;;;;;6310257;22;20074;-83
2023/06/13 20:12:44;;;;;;;3.88;3.58;;;;;;;;;;6310222;22;20057;-82
2023/06/13 20:15:10;;;;;;;5.10;3.90;;;;;;;;;;6309982;22;20030;-84
2023/06/13 20:17:35;;;;;;;5.63;4.70;;;;;;;;;;6308442;22;20056;-82
2023/06/13 20:20:09;;;;;;;4.45;4.05;;;;;;;;;;6309910;22;20010;-80
2023/06/13 20:22:44;;;;;;;4.30;4.00;;;;;;;;;;6310276;22;20003;-80
2023/06/13 20:25:10;;;;;;;4.70;4.30;;;;;;;;;;6310489;22;20468;-83
2023/06/13 20:27:36;;;;;;;4.50;4.10;;;;;;;;;;6309860;22;20079;-84
2023/06/13 20:30:03;;;;;;;4.18;3.67;;;;;;;;;;6309991;22;19999;-84
2023/06/13 20:32:30;;;;;;;4.40;4.00;;;;;;;;;;6309486;22;20025;-85
2023/06/13 20:34:55;;;;;;;4.32;4.03;;;;;;;;;;6309898;22;20025;-87
2023/06/13 20:37:21;;;;;;;4.43;4.13;;;;;;;;;;6309965;22;20007;-84
2023/06/13 20:39:46;;;;;;;4.32;3.92;;;;;;;;;;6310145;22;20438;-87
2023/06/13 20:42:14;;;;;;;5.22;4.15;;;;;;;;;;6309661;22;20128;-86
2023/06/13 20:44:42;;;;;;;4.30;3.92;;;;;;;;;;6307976;22;20018;-87
2023/06/13 20:47:09;;;;;;;4.35;4.00;;;;;;;;;;6308127;22;20003;-83
2023/06/13 20:49:35;;;;;;;4.78;4.32;;;;;;;;;;6309989;22;20003;-86
2023/06/13 20:52:01;;;;;;;4.78;4.13;;;;;;;;;;6310022;22;20057;-84
2023/06/13 20:54:28;;;;;;;4.43;4.03;;;;;;;;;;6309408;22;20033;-88
2023/06/13 20:56:53;;;;;;;4.43;4.03;;;;;;;;;;6309924;22;20004;-86
2023/06/13 20:59:19;;;;;;;4.47;4.07;;;;;;;;;;6309576;22;20334;-86
2023/06/13 21:01:45;;;;;;;5.05;4.55;;;;;;;;;;6309607;22;20074;-84
2023/06/13 21:04:11;;;;;;;6.13;5.53;;;;;;;;;;6309518;22;20007;-84
2023/06/13 21:06:37;;;;;;;5.68;5.18;;;;;;;;;;6309767;22;20010;-84
2023/06/13 21:09:05;;;;;;;6.88;6.22;;;;;;;;;;6309832;22;19999;-84
2023/06/13 21:11:31;;;;;;;5.35;4.85;;;;;;;;;;6309653;22;20027;-83
2023/06/13 21:13:57;;;;;;;4.95;4.40;;;;;;;;;;6309281;22;20090;-84
2023/06/13 21:16:24;;;;;;;5.00;4.60;;;;;;;;;;6309195;22;20026;-84
2023/06/13 21:18:49;;;;;;;5.57;4.68;;;;;;;;;;6310417;22;19995;-84
2023/06/13 21:21:16;;;;;;;5.47;4.95;;;;;;;;;;6309716;22;20104;-83
2023/06/13 21:23:41;;;;;;;5.90;5.30;;;;;;;;;;6309503;22;20334;-84
2023/06/13 21:26:07;;;;;;;5.20;4.68;;;;;;;;;;6309454;22;20011;-86
2023/06/13 21:28:32;;;;;;;5.35;4.85;;;;;;;;;;6307730;22;20003;-84
2023/06/13 21:30:58;;;;;;;5.35;4.85;;;;;;;;;;6309197;22;20120;-84
2023/06/13 21:33:26;;;;;;;6.15;5.30;;;;;;;;;;6309009;22;20011;-86
2023/06/13 21:35:53;;;;;;;5.10;4.47;;;;;;;;;;6307526;22;20041;-86
2023/06/13 21:38:20;;;;;;;5.85;4.70;;;;;;;;;;6309538;22;19999;-84
2023/06/13 21:40:46;;;;;;;6.05;5.38;;;;;;;;;;6309285;22;19999;-83
2023/06/13 21:43:12;;;;;;;6.68;5.55;;;;;;;;;;6309510;22;20003;-84
2023/06/13 21:45:37;;;;;;;5.22;4.65;;;;;;;;;;6309365;22;20445;-83
2023/06/13 21:48:03;;;;;;;4.90;4.40;;;;;;;;;;6309082;22;20006;-85
2023/06/13 21:50:30;;;;;;;5.40;4.90;;;;;;;;;;6309357;22;20078;-83
2023/06/13 21:52:56;;;;;;;5.45;4.95;;;;;;;;;;6309375;22;20030;-83
2023/06/13 21:55:22;;;;;;;5.32;4.72;;;;;;;;;;6309158;22;20007;-83
2023/06/13 21:57:50;;;;;;;6.10;4.93;;;;;;;;;;6308965;22;20030;-86
